Time;durP1;ratioP1;P1;durP2;ratioP2;P2;SDS_P1;SDS_P2;PMS_P1;PMS_P2;Temp;Humidity;BMP_temperature;BMP_pressure;BME280_temperature;BME280_humidity;BME280_pressure;Samples;Min_cycle;Max_cycle;Signal;HPM_P1;HPM_P2
2022/01/13 00:00:48;;;;;;;50.92;15.70;;;;;;;;;;4945903;28;20031;-80
2022/01/13 00:03:14;;;;;;;55.20;15.55;;;;;;;;;;4947246;28;20054;-80
2022/01/13 00:05:40;;;;;;;52.90;17.25;;;;;;;;;;4949024;28;20031;-80
2022/01/13 00:08:06;;;;;;;46.83;11.98;;;;;;;;;;4960344;28;20031;-80
2022/01/13 00:10:32;;;;;;;39.08;11.52;;;;;;;;;;4965315;28;20027;-80
2022/01/13 00:13:05;;;;;;;52.70;16.85;;;;;;;;;;4940483;28;20494;-80
2022/01/13 00:15:51;;;;;;;31.20;10.02;;;;;;;;;;4930880;28;20063;-81
2022/01/13 00:18:38;;;;;;;47.60;14.73;;;;;;;;;;4942098;28;20035;-80
2022/01/13 00:21:15;;;;;;;51.42;14.75;;;;;;;;;;4934985;28;20036;-80
2022/01/13 00:23:53;;;;;;;64.55;15.50;;;;;;;;;;4925244;29;20039;-80
2022/01/13 00:26:22;;;;;;;32.97;9.45;;;;;;;;;;4925307;28;20054;-80
2022/01/13 00:28:52;;;;;;;57.40;15.00;;;;;;;;;;4949399;28;20015;-80
2022/01/13 00:31:24;;;;;;;29.33;8.77;;;;;;;;;;4925215;28;20047;-80
2022/01/13 00:33:54;;;;;;;47.28;12.68;;;;;;;;;;4937403;29;20407;-80
2022/01/13 00:36:20;;;;;;;42.47;13.80;;;;;;;;;;4930451;29;20039;-80
2022/01/13 00:38:47;;;;;;;65.50;15.20;;;;;;;;;;4943019;28;20042;-80
2022/01/13 00:41:13;;;;;;;43.22;13.57;;;;;;;;;;4943934;28;20032;-80
2022/01/13 00:43:41;;;;;;;39.83;11.95;;;;;;;;;;4922982;29;20683;-80
2022/01/13 00:46:08;;;;;;;41.92;10.20;;;;;;;;;;4926916;29;20028;-79
2022/01/13 00:48:34;;;;;;;60.80;15.57;;;;;;;;;;4924549;28;20073;-81
2022/01/13 00:51:00;;;;;;;65.63;15.07;;;;;;;;;;4944954;28;20491;-80
2022/01/13 00:53:26;;;;;;;46.17;13.25;;;;;;;;;;4927614;28;20066;-80
2022/01/13 00:55:58;;;;;;;58.83;12.95;;;;;;;;;;4937234;28;20105;-80
2022/01/13 00:58:26;;;;;;;58.92;13.23;;;;;;;;;;4939057;28;20031;-81
2022/01/13 01:00:53;;;;;;;42.25;10.00;;;;;;;;;;4924571;29;20543;-79
2022/01/13 01:03:19;;;;;;;42.38;12.38;;;;;;;;;;4928952;29;20677;-80
2022/01/13 01:05:45;;;;;;;36.17;10.52;;;;;;;;;;4936580;28;20179;-79
2022/01/13 01:08:12;;;;;;;52.15;12.15;;;;;;;;;;4926601;29;20032;-79
2022/01/13 01:10:38;;;;;;;43.55;11.38;;;;;;;;;;4922299;29;20034;-81
2022/01/13 01:13:10;;;;;;;57.25;12.45;;;;;;;;;;4924191;29;20043;-80
2022/01/13 01:15:38;;;;;;;24.05;7.70;;;;;;;;;;4924518;28;20503;-79
2022/01/13 01:18:13;;;;;;;50.38;11.35;;;;;;;;;;4925298;28;20749;-81
2022/01/13 01:20:49;;;;;;;45.50;12.70;;;;;;;;;;4923787;29;20060;-80
2022/01/13 01:23:20;;;;;;;26.83;7.85;;;;;;;;;;4940216;28;20036;-80
2022/01/13 01:25:59;;;;;;;51.28;12.77;;;;;;;;;;4938641;28;20035;-80
2022/01/13 01:28:35;;;;;;;34.25;7.75;;;;;;;;;;4920534;28;20031;-79
2022/01/13 01:31:01;;;;;;;55.88;12.68;;;;;;;;;;4923298;29;20138;-79
2022/01/13 01:33:27;;;;;;;50.20;12.38;;;;;;;;;;4941660;28;20060;-79
2022/01/13 01:35:56;;;;;;;58.42;13.27;;;;;;;;;;4927038;29;20115;-79
2022/01/13 01:38:22;;;;;;;20.77;7.82;;;;;;;;;;4928766;29;20484;-79
2022/01/13 01:40:48;;;;;;;62.58;13.98;;;;;;;;;;4941007;28;20032;-80
2022/01/13 01:43:14;;;;;;;21.33;7.30;;;;;;;;;;4939476;28;20053;-80
2022/01/13 01:45:48;;;;;;;46.88;14.02;;;;;;;;;;4923186;28;20027;-80
2022/01/13 01:48:19;;;;;;;51.90;13.02;;;;;;;;;;4919493;28;20034;-79
2022/01/13 01:50:54;;;;;;;63.28;15.27;;;;;;;;;;4944856;28;20023;-80
2022/01/13 01:53:20;;;;;;;63.45;15.30;;;;;;;;;;4934399;28;20031;-79
2022/01/13 01:55:46;;;;;;;60.65;14.90;;;;;;;;;;4949768;28;20046;-80
2022/01/13 01:58:12;;;;;;;82.07;15.23;;;;;;;;;;4946238;28;20028;-79
2022/01/13 02:00:39;;;;;;;36.17;10.48;;;;;;;;;;4931263;29;20064;-80
2022/01/13 02:03:06;;;;;;;47.00;12.85;;;;;;;;;;4945393;28;20035;-80
2022/01/13 02:05:32;;;;;;;57.72;17.00;;;;;;;;;;4929686;29;20027;-79
2022/01/13 02:07:58;;;;;;;63.65;13.73;;;;;;;;;;4932479;28;20057;-79
2022/01/13 02:10:25;;;;;;;62.00;13.05;;;;;;;;;;4936561;29;20083;-79
2022/01/13 02:12:59;;;;;;;48.55;15.05;;;;;;;;;;4944964;28;20427;-79
2022/01/13 02:15:32;;;;;;;66.35;14.95;;;;;;;;;;4935366;28;20098;-80
2022/01/13 02:17:58;;;;;;;57.70;14.00;;;;;;;;;;4949232;28;20051;-79
2022/01/13 02:20:25;;;;;;;48.28;13.00;;;;;;;;;;4961926;28;20031;-79
2022/01/13 02:22:51;;;;;;;62.05;16.85;;;;;;;;;;4950895;28;20063;-80
2022/01/13 02:25:17;;;;;;;42.60;13.23;;;;;;;;;;4947037;28;20114;-79
2022/01/13 02:27:44;;;;;;;74.80;18.13;;;;;;;;;;4971962;28;20019;-79
2022/01/13 02:30:11;;;;;;;58.22;13.02;;;;;;;;;;4951162;28;20319;-80
2022/01/13 02:32:37;;;;;;;66.38;16.88;;;;;;;;;;4951564;28;20480;-80
2022/01/13 02:35:03;;;;;;;61.40;12.68;;;;;;;;;;4951841;28;20042;-79
2022/01/13 02:37:29;;;;;;;54.10;12.32;;;;;;;;;;4970708;28;20781;-79
2022/01/13 02:39:55;;;;;;;23.08;8.35;;;;;;;;;;4965960;28;20045;-79
2022/01/13 02:42:22;;;;;;;28.95;7.93;;;;;;;;;;4949730;28;20034;-80
2022/01/13 02:45:16;;;;;;;67.85;15.88;;;;;;;;;;4949173;28;20037;-80
2022/01/13 02:47:57;;;;;;;;;;;;;;;;;;4961179;28;20039;-79
2022/01/13 02:50:20;;;;;;;48.47;10.30;;;;;;;;;;4970148;28;20078;-80
2022/01/13 02:52:46;;;;;;;53.17;14.85;;;;;;;;;;4948101;28;20730;-79
2022/01/13 02:55:12;;;;;;;51.10;12.93;;;;;;;;;;4962911;28;20063;-79
2022/01/13 02:57:39;;;;;;;64.80;13.30;;;;;;;;;;4961704;28;20094;-80
2022/01/13 03:00:06;;;;;;;74.45;17.65;;;;;;;;;;4949711;28;20039;-79
2022/01/13 03:02:33;;;;;;;67.75;15.43;;;;;;;;;;4946440;28;20031;-80
2022/01/13 03:04:59;;;;;;;54.35;14.02;;;;;;;;;;4947369;28;20031;-79
2022/01/13 03:07:26;;;;;;;19.92;4.68;;;;;;;;;;4950319;28;20492;-79
2022/01/13 03:09:52;;;;;;;70.90;15.07;;;;;;;;;;4940157;28;20034;-79
2022/01/13 03:12:19;;;;;;;57.90;14.35;;;;;;;;;;4946885;28;20035;-80
2022/01/13 03:14:45;;;;;;;60.25;14.95;;;;;;;;;;4944643;28;20038;-80
2022/01/13 03:17:11;;;;;;;91.65;17.52;;;;;;;;;;4947309;28;20091;-79
2022/01/13 03:19:37;;;;;;;52.35;13.38;;;;;;;;;;4945188;28;20034;-79
2022/01/13 03:22:03;;;;;;;47.80;14.23;;;;;;;;;;4947190;28;20031;-79
2022/01/13 03:24:31;;;;;;;50.92;13.93;;;;;;;;;;4943449;28;20034;-80
2022/01/13 03:27:01;;;;;;;39.72;11.88;;;;;;;;;;4944430;28;21177;-79
2022/01/13 03:29:27;;;;;;;49.40;14.77;;;;;;;;;;4962622;28;20029;-79
2022/01/13 03:31:53;;;;;;;55.63;14.82;;;;;;;;;;4959616;28;20113;-79
2022/01/13 03:34:19;;;;;;;57.30;13.48;;;;;;;;;;4946458;28;20118;-80
2022/01/13 03:36:46;;;;;;;78.22;13.95;;;;;;;;;;4943600;28;20061;-79
2022/01/13 03:39:15;;;;;;;59.42;14.32;;;;;;;;;;4952183;28;20038;-79
2022/01/13 03:41:41;;;;;;;58.72;15.65;;;;;;;;;;4942856;28;20559;-80
2022/01/13 03:44:17;;;;;;;67.07;14.93;;;;;;;;;;4952883;28;20038;-79
2022/01/13 03:46:43;;;;;;;69.40;14.80;;;;;;;;;;4946820;28;20105;-79
2022/01/13 03:49:09;;;;;;;64.90;14.68;;;;;;;;;;4943855;28;20038;-80
2022/01/13 03:52:05;;;;;;;69.68;18.70;;;;;;;;;;4949020;28;20092;-80
2022/01/13 03:54:35;;;;;;;41.70;10.45;;;;;;;;;;4948650;28;20344;-79
2022/01/13 03:57:20;;;;;;;74.63;15.60;;;;;;;;;;4950477;28;20479;-79
2022/01/13 04:00:07;;;;;;;45.78;13.95;;;;;;;;;;4948851;28;20045;-80
2022/01/13 04:02:34;;;;;;;41.50;9.77;;;;;;;;;;4955976;28;20034;-79
2022/01/13 04:05:00;;;;;;;32.80;8.90;;;;;;;;;;4945585;28;20062;-80
2022/01/13 04:07:26;;;;;;;73.30;16.42;;;;;;;;;;4943978;28;20398;-80
2022/01/13 04:10:04;;;;;;;65.65;15.35;;;;;;;;;;4949567;28;20646;-80
2022/01/13 04:12:30;;;;;;;64.85;14.55;;;;;;;;;;4947424;28;20025;-80
2022/01/13 04:14:59;;;;;;;54.55;13.40;;;;;;;;;;4939885;28;20046;-80
2022/01/13 04:17:31;;;;;;;32.40;9.48;;;;;;;;;;4940098;28;20122;-80
2022/01/13 04:19:57;;;;;;;68.47;17.88;;;;;;;;;;4928599;29;20118;-80
2022/01/13 04:22:24;;;;;;;41.88;12.77;;;;;;;;;;4926874;29;20475;-80
2022/01/13 04:24:51;;;;;;;81.75;16.02;;;;;;;;;;4940689;28;20103;-79
2022/01/13 04:27:23;;;;;;;57.72;15.10;;;;;;;;;;4927066;29;20612;-79
2022/01/13 04:30:00;;;;;;;24.42;7.88;;;;;;;;;;4927509;28;20044;-80
2022/01/13 04:32:26;;;;;;;74.65;16.80;;;;;;;;;;4930075;29;20034;-79
2022/01/13 04:34:53;;;;;;;25.77;8.70;;;;;;;;;;4923805;29;20424;-79
2022/01/13 04:37:19;;;;;;;47.03;11.27;;;;;;;;;;4928432;28;20031;-79
2022/01/13 04:39:45;;;;;;;41.80;10.73;;;;;;;;;;4928484;29;20483;-79
2022/01/13 04:42:13;;;;;;;66.03;15.38;;;;;;;;;;4924415;28;20043;-80
2022/01/13 04:44:39;;;;;;;86.90;17.50;;;;;;;;;;4929873;29;20043;-80
2022/01/13 04:47:07;;;;;;;43.90;11.43;;;;;;;;;;4926714;29;20107;-79
2022/01/13 04:49:34;;;;;;;18.95;5.97;;;;;;;;;;4927165;28;20081;-79
2022/01/13 04:52:00;;;;;;;52.45;12.00;;;;;;;;;;4923501;28;20620;-80
2022/01/13 04:54:26;;;;;;;71.53;13.73;;;;;;;;;;4923545;28;20042;-79
2022/01/13 04:57:06;;;;;;;30.27;7.97;;;;;;;;;;4944200;28;20035;-80
2022/01/13 04:59:32;;;;;;;34.22;9.85;;;;;;;;;;4927212;28;20150;-79
2022/01/13 05:02:00;;;;;;;53.95;11.68;;;;;;;;;;4944182;28;20038;-79
2022/01/13 05:04:27;;;;;;;57.35;12.00;;;;;;;;;;4925642;29;21141;-80
2022/01/13 05:06:53;;;;;;;60.58;13.35;;;;;;;;;;4929984;29;20055;-79
2022/01/13 05:09:19;;;;;;;40.78;10.68;;;;;;;;;;4925525;28;20083;-79
2022/01/13 05:11:45;;;;;;;71.05;14.63;;;;;;;;;;4926432;28;20030;-80
2022/01/13 05:14:11;;;;;;;25.25;8.43;;;;;;;;;;4924649;28;20039;-79
2022/01/13 05:16:57;;;;;;;54.97;15.00;;;;;;;;;;4925747;29;20035;-80
2022/01/13 05:19:30;;;;;;;40.92;10.45;;;;;;;;;;4924185;28;20134;-80
2022/01/13 05:22:15;;;;;;;63.25;13.55;;;;;;;;;;4923700;29;20053;-79
2022/01/13 05:24:41;;;;;;;61.38;14.70;;;;;;;;;;4927130;28;20503;-80
2022/01/13 05:27:08;;;;;;;47.60;9.82;;;;;;;;;;4945673;28;20086;-80
2022/01/13 05:29:34;;;;;;;57.47;12.85;;;;;;;;;;4927539;29;20472;-79
2022/01/13 05:32:00;;;;;;;87.50;16.52;;;;;;;;;;4929544;28;20142;-79
2022/01/13 05:34:26;;;;;;;24.90;7.72;;;;;;;;;;4929114;28;20638;-79
2022/01/13 05:36:52;;;;;;;20.27;6.32;;;;;;;;;;4927989;28;20487;-80
2022/01/13 05:39:18;;;;;;;84.97;15.20;;;;;;;;;;4920901;28;20031;-79
2022/01/13 05:41:44;;;;;;;70.13;15.05;;;;;;;;;;4920481;28;20085;-79
2022/01/13 05:44:10;;;;;;;58.15;15.02;;;;;;;;;;4929147;28;20126;-79
2022/01/13 05:46:36;;;;;;;63.67;15.48;;;;;;;;;;4927835;29;20114;-79
2022/01/13 05:49:02;;;;;;;85.07;15.00;;;;;;;;;;4924704;29;20115;-79
2022/01/13 05:51:28;;;;;;;74.75;14.13;;;;;;;;;;4942128;28;20088;-79
2022/01/13 05:53:54;;;;;;;102.25;15.73;;;;;;;;;;4938954;28;20051;-79
2022/01/13 05:56:20;;;;;;;93.22;18.00;;;;;;;;;;4929398;29;20028;-79
2022/01/13 05:58:46;;;;;;;84.18;15.88;;;;;;;;;;4923299;28;20054;-79
2022/01/13 06:01:12;;;;;;;53.42;9.65;;;;;;;;;;4942164;28;20468;-80
2022/01/13 06:03:38;;;;;;;93.38;16.63;;;;;;;;;;4940193;28;20135;-80
2022/01/13 06:06:04;;;;;;;90.03;18.10;;;;;;;;;;4923730;29;20126;-80
2022/01/13 06:08:30;;;;;;;101.85;19.05;;;;;;;;;;4925259;29;20027;-79
2022/01/13 06:10:56;;;;;;;67.13;12.48;;;;;;;;;;4924327;28;20806;-80
2022/01/13 06:13:22;;;;;;;87.72;17.77;;;;;;;;;;4943195;28;20015;-80
2022/01/13 06:15:48;;;;;;;91.28;19.10;;;;;;;;;;4951080;28;20142;-79
2022/01/13 06:18:15;;;;;;;48.00;9.13;;;;;;;;;;4950745;28;20058;-79
2022/01/13 06:20:42;;;;;;;75.18;16.17;;;;;;;;;;4938744;28;20114;-79
2022/01/13 06:23:10;;;;;;;30.50;9.27;;;;;;;;;;4948333;28;20078;-80
2022/01/13 06:25:36;;;;;;;112.90;18.50;;;;;;;;;;4959532;28;20081;-79
2022/01/13 06:28:02;;;;;;;58.80;16.63;;;;;;;;;;4946880;28;20479;-80
2022/01/13 06:30:30;;;;;;;74.28;14.80;;;;;;;;;;4943420;28;20527;-80
2022/01/13 06:32:56;;;;;;;47.47;12.02;;;;;;;;;;4942827;28;20019;-80
2022/01/13 06:35:22;;;;;;;105.20;21.25;;;;;;;;;;4944673;28;20041;-79
2022/01/13 06:37:49;;;;;;;102.10;22.23;;;;;;;;;;4943361;28;20037;-79
2022/01/13 06:40:15;;;;;;;91.35;18.15;;;;;;;;;;4950477;28;20034;-79
2022/01/13 06:42:41;;;;;;;50.33;12.02;;;;;;;;;;4948198;28;20403;-80
2022/01/13 06:45:10;;;;;;;114.97;22.70;;;;;;;;;;4966544;28;20754;-79
2022/01/13 06:47:37;;;;;;;79.45;16.05;;;;;;;;;;4947464;28;20046;-79
2022/01/13 06:50:03;;;;;;;102.85;19.92;;;;;;;;;;4951197;28;20023;-79
2022/01/13 06:52:29;;;;;;;91.38;19.02;;;;;;;;;;4949579;28;20035;-80
2022/01/13 06:54:55;;;;;;;75.82;17.55;;;;;;;;;;4948346;28;20054;-79
2022/01/13 06:57:21;;;;;;;116.80;21.02;;;;;;;;;;4945512;28;20062;-79
2022/01/13 06:59:47;;;;;;;91.07;18.05;;;;;;;;;;4959412;28;20034;-80
2022/01/13 07:02:14;;;;;;;89.50;20.20;;;;;;;;;;4948690;28;20035;-79
2022/01/13 07:04:41;;;;;;;80.82;19.20;;;;;;;;;;4943165;28;20031;-80
2022/01/13 07:07:07;;;;;;;123.35;24.80;;;;;;;;;;4948010;28;20031;-79
2022/01/13 07:09:33;;;;;;;95.28;17.13;;;;;;;;;;4945910;28;20044;-80
2022/01/13 07:11:59;;;;;;;82.30;17.40;;;;;;;;;;4943776;28;20123;-79
2022/01/13 07:14:25;;;;;;;67.55;16.20;;;;;;;;;;4943307;28;20481;-80
2022/01/13 07:16:51;;;;;;;65.15;12.32;;;;;;;;;;4933487;28;20087;-79
2022/01/13 07:19:17;;;;;;;80.50;18.77;;;;;;;;;;4924057;29;20038;-79
2022/01/13 07:21:44;;;;;;;123.70;24.65;;;;;;;;;;4930032;28;20042;-80
2022/01/13 07:24:10;;;;;;;49.15;11.70;;;;;;;;;;4931179;29;20027;-80
2022/01/13 07:26:36;;;;;;;83.97;17.70;;;;;;;;;;4933447;28;20031;-79
2022/01/13 07:29:03;;;;;;;75.22;17.02;;;;;;;;;;4931103;28;20034;-79
2022/01/13 07:31:29;;;;;;;127.93;25.10;;;;;;;;;;4919544;29;20370;-79
2022/01/13 07:33:55;;;;;;;75.65;17.02;;;;;;;;;;4924114;29;20027;-80
2022/01/13 07:36:21;;;;;;;46.42;11.05;;;;;;;;;;4943464;28;20046;-80
2022/01/13 07:38:48;;;;;;;109.20;23.40;;;;;;;;;;4942859;28;20051;-80
2022/01/13 07:41:14;;;;;;;90.38;21.50;;;;;;;;;;4941405;28;20031;-80
2022/01/13 07:43:43;;;;;;;72.80;18.02;;;;;;;;;;4929325;28;20447;-80
2022/01/13 07:46:09;;;;;;;74.43;17.88;;;;;;;;;;4945490;28;20452;-80
2022/01/13 07:48:35;;;;;;;52.08;11.57;;;;;;;;;;4924995;28;20023;-80
2022/01/13 07:51:02;;;;;;;58.88;15.38;;;;;;;;;;4927289;28;20463;-80
2022/01/13 07:53:28;;;;;;;117.72;23.20;;;;;;;;;;4927337;28;20170;-80
2022/01/13 07:55:54;;;;;;;87.68;21.08;;;;;;;;;;4928588;28;20043;-80
2022/01/13 07:58:20;;;;;;;75.75;17.92;;;;;;;;;;4938721;28;20035;-79
2022/01/13 08:00:47;;;;;;;44.97;11.55;;;;;;;;;;4928270;29;20031;-80
2022/01/13 08:03:13;;;;;;;92.47;20.67;;;;;;;;;;4924320;29;20036;-79
2022/01/13 08:05:39;;;;;;;86.63;19.65;;;;;;;;;;4931472;29;20035;-80
2022/01/13 08:08:06;;;;;;;87.85;20.95;;;;;;;;;;4926804;29;20549;-79
2022/01/13 08:10:32;;;;;;;97.55;21.60;;;;;;;;;;4939170;28;20416;-79
2022/01/13 08:12:58;;;;;;;83.05;20.17;;;;;;;;;;4931610;29;20031;-80
2022/01/13 08:15:24;;;;;;;60.75;17.45;;;;;;;;;;4951786;28;20059;-80
2022/01/13 08:20:35;;;;;;;111.80;21.30;;;;;;;;;;4956484;28;20575;-80
2022/01/13 08:23:02;;;;;;;113.10;23.52;;;;;;;;;;4947312;28;20045;-79
2022/01/13 08:25:28;;;;;;;105.10;26.48;;;;;;;;;;4945551;28;20037;-79
2022/01/13 08:27:55;;;;;;;72.65;16.45;;;;;;;;;;4936200;28;20061;-80
2022/01/13 08:30:21;;;;;;;90.38;19.35;;;;;;;;;;4957973;28;20491;-79
2022/01/13 08:32:47;;;;;;;85.63;18.83;;;;;;;;;;4945844;28;20023;-80
2022/01/13 08:35:14;;;;;;;71.85;17.13;;;;;;;;;;4963055;28;20042;-80
2022/01/13 08:37:40;;;;;;;84.25;19.85;;;;;;;;;;4944823;28;20432;-80
2022/01/13 08:40:08;;;;;;;87.72;19.35;;;;;;;;;;4945491;28;20045;-79
2022/01/13 08:42:34;;;;;;;105.88;22.58;;;;;;;;;;4957314;28;20030;-79
2022/01/13 08:45:01;;;;;;;66.53;14.88;;;;;;;;;;4964790;28;20030;-80
2022/01/13 08:47:27;;;;;;;69.78;17.60;;;;;;;;;;4943251;28;20027;-80
2022/01/13 08:49:53;;;;;;;73.70;20.17;;;;;;;;;;4949973;28;20551;-80
2022/01/13 08:52:19;;;;;;;66.28;17.83;;;;;;;;;;4947530;28;20478;-80
2022/01/13 08:54:46;;;;;;;92.35;20.25;;;;;;;;;;4941309;28;20460;-80
2022/01/13 08:57:13;;;;;;;111.07;25.00;;;;;;;;;;4943347;28;20038;-80
2022/01/13 08:59:39;;;;;;;77.43;20.77;;;;;;;;;;4926742;28;20066;-80
2022/01/13 09:02:05;;;;;;;84.15;23.40;;;;;;;;;;4947548;28;20038;-79
2022/01/13 09:04:31;;;;;;;98.28;23.08;;;;;;;;;;4943500;28;20086;-79
2022/01/13 09:06:57;;;;;;;109.18;23.65;;;;;;;;;;4947236;28;20118;-80
2022/01/13 09:09:24;;;;;;;91.03;19.05;;;;;;;;;;4949450;28;20039;-79
2022/01/13 09:11:50;;;;;;;83.95;18.92;;;;;;;;;;4948644;28;20679;-79
2022/01/13 09:14:22;;;;;;;81.82;19.55;;;;;;;;;;4946163;28;20038;-80
2022/01/13 09:16:49;;;;;;;70.47;17.85;;;;;;;;;;4945158;28;20507;-81
2022/01/13 09:19:17;;;;;;;93.85;21.90;;;;;;;;;;4959891;28;20031;-80
2022/01/13 09:21:50;;;;;;;92.72;24.08;;;;;;;;;;4939584;28;20043;-80
2022/01/13 09:24:17;;;;;;;73.72;15.68;;;;;;;;;;4945680;28;20030;-80
2022/01/13 09:26:44;;;;;;;76.90;17.67;;;;;;;;;;4958963;28;20459;-80
2022/01/13 09:29:11;;;;;;;80.53;20.40;;;;;;;;;;4952819;28;20301;-79
2022/01/13 09:31:38;;;;;;;92.03;21.00;;;;;;;;;;4960111;28;20560;-80
2022/01/13 09:34:04;;;;;;;66.78;14.90;;;;;;;;;;4944908;28;20415;-80
2022/01/13 09:36:32;;;;;;;75.28;18.85;;;;;;;;;;4960708;28;20395;-80
2022/01/13 09:38:59;;;;;;;60.58;18.05;;;;;;;;;;4946224;28;20061;-79
2022/01/13 09:41:25;;;;;;;77.32;20.75;;;;;;;;;;4948759;28;20085;-80
2022/01/13 09:43:51;;;;;;;66.93;17.73;;;;;;;;;;4943574;28;20069;-80
2022/01/13 09:46:18;;;;;;;60.85;18.25;;;;;;;;;;4940780;28;20034;-80
2022/01/13 09:48:46;;;;;;;76.70;21.30;;;;;;;;;;4944983;28;20176;-81
2022/01/13 09:51:12;;;;;;;55.25;14.93;;;;;;;;;;4946198;28;20479;-79
2022/01/13 09:53:38;;;;;;;55.15;18.55;;;;;;;;;;4959156;28;20027;-81
2022/01/13 09:56:05;;;;;;;87.10;21.20;;;;;;;;;;4948457;28;20661;-79
2022/01/13 09:58:31;;;;;;;30.88;9.15;;;;;;;;;;4944770;28;20406;-79
2022/01/13 10:00:58;;;;;;;45.42;15.10;;;;;;;;;;4941257;28;20200;-80
2022/01/13 10:03:27;;;;;;;44.00;15.80;;;;;;;;;;4948574;28;20077;-80
2022/01/13 10:05:58;;;;;;;69.63;21.67;;;;;;;;;;4944957;28;20090;-80
2022/01/13 10:08:40;;;;;;;56.75;17.52;;;;;;;;;;4946270;28;20034;-79
2022/01/13 10:11:25;;;;;;;47.78;13.00;;;;;;;;;;4946423;28;20066;-79
2022/01/13 10:14:04;;;;;;;59.00;17.20;;;;;;;;;;4945401;28;20023;-80
2022/01/13 10:16:30;;;;;;;47.10;17.00;;;;;;;;;;4964156;28;20053;-80
2022/01/13 10:18:56;;;;;;;53.85;16.42;;;;;;;;;;4961339;28;20070;-79
2022/01/13 10:21:22;;;;;;;57.92;15.75;;;;;;;;;;4963896;28;20057;-80
2022/01/13 10:24:02;;;;;;;66.40;21.00;;;;;;;;;;4952890;28;20031;-80
2022/01/13 10:26:30;;;;;;;74.95;18.73;;;;;;;;;;4950002;28;20118;-80
2022/01/13 10:28:56;;;;;;;48.72;16.92;;;;;;;;;;4944144;28;20044;-79
2022/01/13 10:31:22;;;;;;;70.13;19.13;;;;;;;;;;4951108;28;20083;-80
2022/01/13 10:33:48;;;;;;;41.50;14.15;;;;;;;;;;4950091;28;20542;-80
2022/01/13 10:36:14;;;;;;;41.15;11.20;;;;;;;;;;4950687;28;20057;-80
2022/01/13 10:38:51;;;;;;;34.63;10.48;;;;;;;;;;4950471;28;20027;-80
2022/01/13 10:41:48;;;;;;;63.75;18.83;;;;;;;;;;4933020;29;20027;-80
2022/01/13 10:44:20;;;;;;;44.17;13.18;;;;;;;;;;4937686;28;20094;-80
2022/01/13 10:47:03;;;;;;;52.72;16.02;;;;;;;;;;4940607;28;20399;-80
2022/01/13 10:49:34;;;;;;;56.20;17.50;;;;;;;;;;4945360;28;20031;-80
2022/01/13 10:52:23;;;;;;;27.42;9.48;;;;;;;;;;4949407;28;20031;-80
2022/01/13 10:54:51;;;;;;;64.53;19.05;;;;;;;;;;4947300;28;20561;-80
2022/01/13 10:57:18;;;;;;;66.72;20.38;;;;;;;;;;4949048;28;20038;-79
2022/01/13 10:59:45;;;;;;;58.22;20.13;;;;;;;;;;4950431;28;20038;-80
2022/01/13 11:02:11;;;;;;;44.60;13.35;;;;;;;;;;4954702;28;20042;-81
2022/01/13 11:04:38;;;;;;;55.17;16.60;;;;;;;;;;4945958;28;20620;-80
2022/01/13 11:07:17;;;;;;;67.30;18.83;;;;;;;;;;4949393;28;20403;-80
2022/01/13 11:09:51;;;;;;;67.15;18.30;;;;;;;;;;4964058;28;20031;-80
2022/01/13 11:12:17;;;;;;;58.33;19.73;;;;;;;;;;4941475;28;20020;-80
2022/01/13 11:14:45;;;;;;;73.63;21.02;;;;;;;;;;4968288;28;20090;-79
2022/01/13 11:17:11;;;;;;;53.70;16.90;;;;;;;;;;4927929;28;20478;-81
2022/01/13 11:19:41;;;;;;;48.38;15.30;;;;;;;;;;4928482;29;20487;-80
2022/01/13 11:22:09;;;;;;;62.83;18.75;;;;;;;;;;4929045;28;20049;-80
2022/01/13 11:24:35;;;;;;;33.72;13.05;;;;;;;;;;4925765;29;20492;-79
2022/01/13 11:27:03;;;;;;;55.95;20.75;;;;;;;;;;4944157;28;20032;-80
2022/01/13 11:29:29;;;;;;;42.72;13.50;;;;;;;;;;4920571;28;20051;-80
2022/01/13 11:31:56;;;;;;;56.45;20.60;;;;;;;;;;4939150;28;20062;-80
2022/01/13 11:34:23;;;;;;;62.65;20.48;;;;;;;;;;4928800;29;20042;-79
2022/01/13 11:36:49;;;;;;;59.63;22.13;;;;;;;;;;4931473;29;20035;-79
2022/01/13 11:39:15;;;;;;;42.17;14.68;;;;;;;;;;4931575;28;20066;-80
2022/01/13 11:42:08;;;;;;;73.68;22.75;;;;;;;;;;4930796;29;20031;-79
2022/01/13 11:44:34;;;;;;;59.40;19.95;;;;;;;;;;4932245;28;20043;-80
2022/01/13 11:47:01;;;;;;;60.83;20.90;;;;;;;;;;4928666;29;20031;-79
2022/01/13 11:49:53;;;;;;;52.88;18.50;;;;;;;;;;4942725;28;20086;-80
2022/01/13 11:52:27;;;;;;;56.03;17.77;;;;;;;;;;4945974;28;20090;-80
2022/01/13 11:54:53;;;;;;;38.42;12.43;;;;;;;;;;4929146;29;20039;-79
2022/01/13 11:57:21;;;;;;;44.90;16.15;;;;;;;;;;4925420;29;20035;-80
2022/01/13 11:59:57;;;;;;;46.53;16.33;;;;;;;;;;4925875;28;20094;-80
2022/01/13 12:02:25;;;;;;;48.80;17.85;;;;;;;;;;4939726;28;20534;-79
2022/01/13 12:05:00;;;;;;;41.47;16.08;;;;;;;;;;4928235;28;20148;-80
2022/01/13 12:07:39;;;;;;;44.42;18.15;;;;;;;;;;4926697;29;20034;-80
2022/01/13 12:10:07;;;;;;;37.97;14.48;;;;;;;;;;4924434;29;20600;-80
2022/01/13 12:12:34;;;;;;;50.88;19.27;;;;;;;;;;4923699;29;20043;-80
2022/01/13 12:15:16;;;;;;;60.13;20.40;;;;;;;;;;4927063;28;20946;-80
2022/01/13 12:17:52;;;;;;;24.83;11.50;;;;;;;;;;4928688;28;20067;-80
2022/01/13 12:20:40;;;;;;;29.67;13.52;;;;;;;;;;4924630;29;20669;-81
2022/01/13 12:23:29;;;;;;;42.85;15.50;;;;;;;;;;4934830;28;20043;-80
2022/01/13 12:25:56;;;;;;;50.55;19.40;;;;;;;;;;4928741;28;20130;-80
2022/01/13 12:28:27;;;;;;;48.33;16.48;;;;;;;;;;4943770;28;20073;-80
2022/01/13 12:30:53;;;;;;;34.83;14.70;;;;;;;;;;4925309;28;20027;-80
2022/01/13 12:33:45;;;;;;;53.63;21.90;;;;;;;;;;4942646;28;20036;-80
2022/01/13 12:36:23;;;;;;;43.92;13.95;;;;;;;;;;4927877;28;20039;-79
2022/01/13 12:38:59;;;;;;;42.22;15.40;;;;;;;;;;4921344;28;20111;-80
2022/01/13 12:41:27;;;;;;;56.63;17.42;;;;;;;;;;4920320;28;20286;-80
2022/01/13 12:44:12;;;;;;;41.92;17.83;;;;;;;;;;4928271;29;20027;-80
2022/01/13 12:46:39;;;;;;;28.48;14.32;;;;;;;;;;4916378;29;20046;-80
2022/01/13 12:49:07;;;;;;;45.35;16.65;;;;;;;;;;4924617;28;20035;-80
2022/01/13 12:51:33;;;;;;;36.70;11.27;;;;;;;;;;4924692;28;20754;-80
2022/01/13 12:53:59;;;;;;;31.83;12.20;;;;;;;;;;4923593;28;20503;-80
2022/01/13 12:56:26;;;;;;;55.50;17.58;;;;;;;;;;4919031;28;20036;-80
2022/01/13 12:58:56;;;;;;;51.97;17.65;;;;;;;;;;4938426;28;20419;-80
2022/01/13 13:01:24;;;;;;;32.08;12.75;;;;;;;;;;4940807;28;20121;-80
2022/01/13 13:04:09;;;;;;;55.30;16.40;;;;;;;;;;4920133;29;21111;-80
2022/01/13 13:06:37;;;;;;;38.83;15.75;;;;;;;;;;4924553;29;20343;-79
2022/01/13 13:09:10;;;;;;;55.92;16.45;;;;;;;;;;4909987;28;20082;-80
2022/01/13 13:11:43;;;;;;;45.63;15.43;;;;;;;;;;4922859;28;20057;-80
2022/01/13 13:14:18;;;;;;;27.05;12.27;;;;;;;;;;4927685;29;20039;-80
2022/01/13 13:16:53;;;;;;;40.75;16.52;;;;;;;;;;4924567;28;20087;-80
2022/01/13 13:19:19;;;;;;;41.90;14.65;;;;;;;;;;4927806;29;20495;-80
2022/01/13 13:21:51;;;;;;;41.05;14.02;;;;;;;;;;4924311;29;20093;-80
2022/01/13 13:24:18;;;;;;;36.80;14.48;;;;;;;;;;4928218;29;20035;-80
2022/01/13 13:26:44;;;;;;;28.02;10.82;;;;;;;;;;4938905;28;20028;-80
2022/01/13 13:29:10;;;;;;;39.72;15.07;;;;;;;;;;4938293;28;20098;-80
2022/01/13 13:31:39;;;;;;;49.30;16.13;;;;;;;;;;4940911;28;20423;-80
2022/01/13 13:34:07;;;;;;;42.28;12.10;;;;;;;;;;4921344;29;20036;-81
2022/01/13 13:36:44;;;;;;;38.85;15.55;;;;;;;;;;4920957;29;20032;-79
2022/01/13 13:39:11;;;;;;;42.95;13.65;;;;;;;;;;4925775;28;20119;-79
2022/01/13 13:41:41;;;;;;;42.80;17.00;;;;;;;;;;4942427;28;20559;-80
2022/01/13 13:44:08;;;;;;;31.60;13.45;;;;;;;;;;4922604;28;20031;-80
2022/01/13 13:46:34;;;;;;;39.92;14.38;;;;;;;;;;4927551;29;20031;-80
2022/01/13 13:49:00;;;;;;;39.47;13.88;;;;;;;;;;4925492;28;20027;-80
2022/01/13 13:51:28;;;;;;;30.02;10.20;;;;;;;;;;4927864;29;20070;-81
2022/01/13 13:54:11;;;;;;;27.02;10.88;;;;;;;;;;4926468;29;20034;-80
2022/01/13 13:56:42;;;;;;;27.02;9.57;;;;;;;;;;4927558;28;20018;-80
2022/01/13 13:59:12;;;;;;;26.27;12.02;;;;;;;;;;4924356;29;20044;-80
2022/01/13 14:01:38;;;;;;;37.92;12.88;;;;;;;;;;4938224;28;20031;-80
2022/01/13 14:04:04;;;;;;;29.75;10.45;;;;;;;;;;4936535;28;20043;-80
2022/01/13 14:06:38;;;;;;;37.65;13.55;;;;;;;;;;4922150;29;20038;-80
2022/01/13 14:09:04;;;;;;;30.58;11.52;;;;;;;;;;4922183;29;20042;-80
2022/01/13 14:11:42;;;;;;;31.45;11.13;;;;;;;;;;4921678;29;20020;-80
2022/01/13 14:14:11;;;;;;;18.05;8.57;;;;;;;;;;4926194;29;20119;-79
2022/01/13 14:16:37;;;;;;;30.10;11.23;;;;;;;;;;4947292;28;20043;-80
2022/01/13 14:19:05;;;;;;;30.92;13.13;;;;;;;;;;4941451;28;20074;-80
2022/01/13 14:21:44;;;;;;;28.77;10.65;;;;;;;;;;4962187;28;20062;-80
2022/01/13 14:24:10;;;;;;;31.50;12.13;;;;;;;;;;4945410;28;20506;-79
2022/01/13 14:26:36;;;;;;;29.48;10.73;;;;;;;;;;4945833;28;20050;-79
2022/01/13 14:29:03;;;;;;;34.47;13.15;;;;;;;;;;4939632;28;20041;-80
2022/01/13 14:31:39;;;;;;;39.22;12.10;;;;;;;;;;4944213;28;20391;-80